sensor_id;sensor_type;location;lat;lon;timestamp;pressure;altitude;pressure_sealevel;temperature;humidity
42111;BME280;27766;52.174;5.456;2023-05-21T00:01:11;101887.16;;;15.78;100.00
42111;BME280;27766;52.174;5.456;2023-05-21T00:03:42;101878.38;;;15.73;100.00
42111;BME280;27766;52.174;5.456;2023-05-21T00:06:12;101889.75;;;15.80;100.00
42111;BME280;27766;52.174;5.456;2023-05-21T00:08:41;101889.75;;;15.78;100.00
42111;BME280;27766;52.174;5.456;2023-05-21T00:11:11;101875.84;;;15.78;100.00
42111;BME280;27766;52.174;5.456;2023-05-21T00:13:38;101877.56;;;15.79;100.00
42111;BME280;27766;52.174;5.456;2023-05-21T00:16:05;101869.72;;;15.74;100.00
42111;BME280;27766;52.174;5.456;2023-05-21T00:18:32;101879.25;;;15.74;100.00
42111;BME280;27766;52.174;5.456;2023-05-21T00:21:00;101879.31;;;15.78;100.00
42111;BME280;27766;52.174;5.456;2023-05-21T00:23:27;101877.50;;;15.73;100.00
42111;BME280;27766;52.174;5.456;2023-05-21T00:25:58;101874.81;;;15.68;100.00
42111;BME280;27766;52.174;5.456;2023-05-21T00:28:26;101877.47;;;15.71;100.00
42111;BME280;27766;52.174;5.456;2023-05-21T00:30:53;101868.75;;;15.69;100.00
42111;BME280;27766;52.174;5.456;2023-05-21T00:33:20;101870.44;;;15.67;100.00
42111;BME280;27766;52.174;5.456;2023-05-21T00:35:48;101869.56;;;15.65;100.00
42111;BME280;27766;52.174;5.456;2023-05-21T00:38:15;101863.38;;;15.57;100.00
42111;BME280;27766;52.174;5.456;2023-05-21T00:40:43;101865.16;;;15.59;100.00
42111;BME280;27766;52.174;5.456;2023-05-21T00:43:11;101871.16;;;15.54;100.00
42111;BME280;27766;52.174;5.456;2023-05-21T00:45:41;101860.63;;;15.46;100.00
42111;BME280;27766;52.174;5.456;2023-05-21T00:48:13;101867.59;;;15.47;100.00
42111;BME280;27766;52.174;5.456;2023-05-21T00:50:40;101852.78;;;15.46;100.00
42111;BME280;27766;52.174;5.456;2023-05-21T00:53:08;101857.16;;;15.47;100.00
42111;BME280;27766;52.174;5.456;2023-05-21T00:55:39;101858.88;;;15.45;100.00
42111;BME280;27766;52.174;5.456;2023-05-21T00:58:06;101849.34;;;15.50;100.00
42111;BME280;27766;52.174;5.456;2023-05-21T01:00:34;101857.97;;;15.44;100.00
42111;BME280;27766;52.174;5.456;2023-05-21T01:03:03;101855.28;;;15.38;100.00
42111;BME280;27766;52.174;5.456;2023-05-21T01:05:30;101861.41;;;15.39;100.00
42111;BME280;27766;52.174;5.456;2023-05-21T01:07:58;101854.44;;;15.39;100.00
42111;BME280;27766;52.174;5.456;2023-05-21T01:10:26;101850.03;;;15.35;100.00
42111;BME280;27766;52.174;5.456;2023-05-21T01:12:54;101846.59;;;15.39;100.00
42111;BME280;27766;52.174;5.456;2023-05-21T01:15:23;101849.16;;;15.34;100.00
42111;BME280;27766;52.174;5.456;2023-05-21T01:17:50;101845.75;;;15.39;100.00
42111;BME280;27766;52.174;5.456;2023-05-21T01:20:18;101846.59;;;15.38;100.00
42111;BME280;27766;52.174;5.456;2023-05-21T01:22:51;101834.25;;;15.26;100.00
42111;BME280;27766;52.174;5.456;2023-05-21T01:25:22;101838.63;;;15.30;100.00
42111;BME280;27766;52.174;5.456;2023-05-21T01:27:50;101836.00;;;15.27;100.00
42111;BME280;27766;52.174;5.456;2023-05-21T01:30:18;101833.41;;;15.27;100.00
42111;BME280;27766;52.174;5.456;2023-05-21T01:35:25;101836.78;;;15.21;100.00
42111;BME280;27766;52.174;5.456;2023-05-21T01:43:06;101828.81;;;15.10;100.00
42111;BME280;27766;52.174;5.456;2023-05-21T01:45:35;101834.00;;;15.09;100.00
42111;BME280;27766;52.174;5.456;2023-05-21T01:48:06;101835.75;;;15.10;100.00
42111;BME280;27766;52.174;5.456;2023-05-21T01:50:36;101831.34;;;15.04;100.00
42111;BME280;27766;52.174;5.456;2023-05-21T01:53:04;101828.75;;;15.06;100.00
42111;BME280;27766;52.174;5.456;2023-05-21T01:55:32;101835.63;;;15.00;100.00
42111;BME280;27766;52.174;5.456;2023-05-21T01:57:59;101836.47;;;15.01;100.00
42111;BME280;27766;52.174;5.456;2023-05-21T02:00:28;101821.59;;;14.92;100.00
42111;BME280;27766;52.174;5.456;2023-05-21T02:02:56;101826.81;;;14.94;100.00
42111;BME280;27766;52.174;5.456;2023-05-21T02:05:24;101831.19;;;14.96;100.00
42111;BME280;27766;52.174;5.456;2023-05-21T02:07:52;101823.34;;;14.95;100.00
42111;BME280;27766;52.174;5.456;2023-05-21T02:10:19;101830.28;;;14.94;100.00
42111;BME280;27766;52.174;5.456;2023-05-21T02:12:46;101817.25;;;14.93;100.00
42111;BME280;27766;52.174;5.456;2023-05-21T02:15:14;101818.97;;;14.92;100.00
42111;BME280;27766;52.174;5.456;2023-05-21T02:17:44;101824.22;;;14.94;100.00
42111;BME280;27766;52.174;5.456;2023-05-21T02:20:13;101823.34;;;14.93;100.00
42111;BME280;27766;52.174;5.456;2023-05-21T02:22:44;101822.41;;;14.90;100.00
42111;BME280;27766;52.174;5.456;2023-05-21T02:25:14;101825.97;;;14.95;100.00
42111;BME280;27766;52.174;5.456;2023-05-21T02:27:42;101824.19;;;14.92;100.00
42111;BME280;27766;52.174;5.456;2023-05-21T02:30:14;101821.50;;;14.86;100.00
42111;BME280;27766;52.174;5.456;2023-05-21T02:32:42;101815.41;;;14.87;100.00
42111;BME280;27766;52.174;5.456;2023-05-21T02:35:12;101817.22;;;14.90;100.00
42111;BME280;27766;52.174;5.456;2023-05-21T02:37:39;101822.41;;;14.90;100.00
42111;BME280;27766;52.174;5.456;2023-05-21T02:40:07;101824.06;;;14.84;100.00
42111;BME280;27766;52.174;5.456;2023-05-21T02:42:37;101830.94;;;14.79;100.00
42111;BME280;27766;52.174;5.456;2023-05-21T02:45:09;101813.53;;;14.78;100.00
42111;BME280;27766;52.174;5.456;2023-05-21T02:47:40;101826.56;;;14.78;100.00
42111;BME280;27766;52.174;5.456;2023-05-21T02:50:08;101821.34;;;14.78;100.00
42111;BME280;27766;52.174;5.456;2023-05-21T02:52:35;101820.44;;;14.75;100.00
42111;BME280;27766;52.174;5.456;2023-05-21T02:55:02;101816.91;;;14.72;100.00
42111;BME280;27766;52.174;5.456;2023-05-21T02:57:30;101821.25;;;14.72;100.00
42111;BME280;27766;52.174;5.456;2023-05-21T02:59:57;101827.25;;;14.68;100.00
42111;BME280;27766;52.174;5.456;2023-05-21T03:02:24;101821.25;;;14.70;100.00
42111;BME280;27766;52.174;5.456;2023-05-21T03:04:51;101826.47;;;14.72;100.00
42111;BME280;27766;52.174;5.456;2023-05-21T03:07:18;101817.72;;;14.67;100.00
42111;BME280;27766;52.174;5.456;2023-05-21T03:09:46;101818.56;;;14.66;100.00
42111;BME280;27766;52.174;5.456;2023-05-21T03:12:13;101811.50;;;14.62;100.00
42111;BME280;27766;52.174;5.456;2023-05-21T03:14:40;101816.84;;;14.68;100.00
42111;BME280;27766;52.174;5.456;2023-05-21T03:17:12;101815.97;;;14.67;100.00
42111;BME280;27766;52.174;5.456;2023-05-21T03:19:41;101805.63;;;14.70;100.00
42111;BME280;27766;52.174;5.456;2023-05-21T03:22:08;101821.16;;;14.66;100.00
42111;BME280;27766;52.174;5.456;2023-05-21T03:24:37;101811.63;;;14.68;100.00
42111;BME280;27766;52.174;5.456;2023-05-21T03:27:04;101801.13;;;14.65;100.00
42111;BME280;27766;52.174;5.456;2023-05-21T03:29:35;101797.59;;;14.61;100.00
42111;BME280;27766;52.174;5.456;2023-05-21T03:32:02;101802.84;;;14.63;100.00
42111;BME280;27766;52.174;5.456;2023-05-21T03:34:30;101789.81;;;14.64;100.00
42111;BME280;27766;52.174;5.456;2023-05-21T03:36:57;101800.25;;;14.64;100.00
42111;BME280;27766;52.174;5.456;2023-05-21T03:39:24;101794.16;;;14.64;100.00
42111;BME280;27766;52.174;5.456;2023-05-21T03:41:51;101795.19;;;14.70;100.00
42111;BME280;27766;52.174;5.456;2023-05-21T03:44:18;101794.31;;;14.71;100.00
42111;BME280;27766;52.174;5.456;2023-05-21T03:46:46;101791.72;;;14.71;100.00
42111;BME280;27766;52.174;5.456;2023-05-21T03:49:13;101784.69;;;14.66;100.00
42111;BME280;27766;52.174;5.456;2023-05-21T03:51:41;101790.78;;;14.68;100.00
42111;BME280;27766;52.174;5.456;2023-05-21T03:54:08;101783.84;;;14.67;100.00
42111;BME280;27766;52.174;5.456;2023-05-21T03:56:35;101789.91;;;14.66;100.00
42111;BME280;27766;52.174;5.456;2023-05-21T03:59:02;101786.38;;;14.65;100.00
42111;BME280;27766;52.174;5.456;2023-05-21T04:01:29;101792.63;;;14.74;100.00
42111;BME280;27766;52.174;5.456;2023-05-21T04:03:58;101791.69;;;14.70;100.00
42111;BME280;27766;52.174;5.456;2023-05-21T04:06:26;101794.34;;;14.73;100.00
42111;BME280;27766;52.174;5.456;2023-05-21T04:08:53;101789.06;;;14.67;100.00
42111;BME280;27766;52.174;5.456;2023-05-21T04:11:21;101800.44;;;14.74;100.00
42111;BME280;27766;52.174;5.456;2023-05-21T04:13:49;101790.91;;;14.74;100.00
42111;BME280;27766;52.174;5.456;2023-05-21T04:16:16;101789.16;;;14.73;100.00
42111;BME280;27766;52.174;5.456;2023-05-21T04:18:45;101790.78;;;14.68;100.00
42111;BME280;27766;52.174;5.456;2023-05-21T04:21:14;101788.25;;;14.71;100.00
42111;BME280;27766;52.174;5.456;2023-05-21T04:23:42;101790.91;;;14.74;100.00
42111;BME280;27766;52.174;5.456;2023-05-21T04:26:10;101789.94;;;14.69;100.00
42111;BME280;27766;52.174;5.456;2023-05-21T04:28:38;101787.38;;;14.72;100.00
42111;BME280;27766;52.174;5.456;2023-05-21T04:31:07;101791.72;;;14.71;100.00
42111;BME280;27766;52.174;5.456;2023-05-21T04:33:35;101798.66;;;14.71;100.00
42111;BME280;27766;52.174;5.456;2023-05-21T04:36:02;101794.16;;;14.64;100.00
42111;BME280;27766;52.174;5.456;2023-05-21T04:38:29;101801.97;;;14.62;100.00
42111;BME280;27766;52.174;5.456;2023-05-21T04:40:56;101804.59;;;14.65;100.00
42111;BME280;27766;52.174;5.456;2023-05-21T04:43:24;101815.13;;;14.67;100.00
42111;BME280;27766;52.174;5.456;2023-05-21T04:45:52;101809.03;;;14.68;100.00
42111;BME280;27766;52.174;5.456;2023-05-21T04:48:23;101801.19;;;14.68;100.00
42111;BME280;27766;52.174;5.456;2023-05-21T04:50:54;101799.38;;;14.64;100.00
42111;BME280;27766;52.174;5.456;2023-05-21T04:53:22;101801.19;;;14.68;100.00
42111;BME280;27766;52.174;5.456;2023-05-21T04:55:52;101808.22;;;14.70;100.00
42111;BME280;27766;52.174;5.456;2023-05-21T04:58:19;101803.94;;;14.74;100.00
42111;BME280;27766;52.174;5.456;2023-05-21T05:00:47;101797.03;;;14.78;100.00
42111;BME280;27766;52.174;5.456;2023-05-21T05:03:17;101805.66;;;14.74;100.00
42111;BME280;27766;52.174;5.456;2023-05-21T05:05:45;101810.94;;;14.78;100.00
42111;BME280;27766;52.174;5.456;2023-05-21T05:08:13;101816.16;;;14.78;100.00
42111;BME280;27766;52.174;5.456;2023-05-21T05:10:42;101810.16;;;14.82;100.00
42111;BME280;27766;52.174;5.456;2023-05-21T05:13:09;101807.53;;;14.82;100.00
42111;BME280;27766;52.174;5.456;2023-05-21T05:15:39;101808.47;;;14.87;100.00
42111;BME280;27766;52.174;5.456;2023-05-21T05:18:07;101815.47;;;14.92;100.00
42111;BME280;27766;52.174;5.456;2023-05-21T05:20:34;101815.53;;;14.95;100.00
42111;BME280;27766;52.174;5.456;2023-05-21T05:23:02;101805.13;;;14.95;100.00
42111;BME280;27766;52.174;5.456;2023-05-21T05:25:29;101812.03;;;14.93;100.00
42111;BME280;27766;52.174;5.456;2023-05-21T05:27:56;101806.78;;;14.90;100.00
42111;BME280;27766;52.174;5.456;2023-05-21T05:30:23;101805.06;;;14.92;100.00
42111;BME280;27766;52.174;5.456;2023-05-21T05:32:50;101810.25;;;14.92;100.00
42111;BME280;27766;52.174;5.456;2023-05-21T05:35:18;101807.66;;;14.92;100.00
42111;BME280;27766;52.174;5.456;2023-05-21T05:37:45;101804.19;;;14.90;100.00
42111;BME280;27766;52.174;5.456;2023-05-21T05:40:13;101799.75;;;14.85;100.00
42111;BME280;27766;52.174;5.456;2023-05-21T05:42:41;101805.88;;;14.87;100.00
42111;BME280;27766;52.174;5.456;2023-05-21T05:45:08;101804.19;;;14.90;100.00
42111;BME280;27766;52.174;5.456;2023-05-21T05:47:36;101812.00;;;14.91;100.00
42111;BME280;27766;52.174;5.456;2023-05-21T05:50:03;101800.75;;;14.94;100.00
42111;BME280;27766;52.174;5.456;2023-05-21T05:52:31;101812.03;;;14.93;100.00
42111;BME280;27766;52.174;5.456;2023-05-21T05:54:58;101801.59;;;14.93;100.00
42111;BME280;27766;52.174;5.456;2023-05-21T05:57:25;101806.88;;;14.96;100.00
42111;BME280;27766;52.174;5.456;2023-05-21T05:59:52;101802.44;;;14.90;100.00
42111;BME280;27766;52.174;5.456;2023-05-21T06:02:20;101804.13;;;14.88;100.00
42111;BME280;27766;52.174;5.456;2023-05-21T06:04:47;101795.31;;;14.80;100.00
42111;BME280;27766;52.174;5.456;2023-05-21T06:07:14;101796.34;;;14.90;100.00
42111;BME280;27766;52.174;5.456;2023-05-21T06:09:41;101793.84;;;14.97;100.00
42111;BME280;27766;52.174;5.456;2023-05-21T06:12:10;101794.75;;;14.98;100.00
42111;BME280;27766;52.174;5.456;2023-05-21T06:14:41;101795.81;;;15.12;100.00
42111;BME280;27766;52.174;5.456;2023-05-21T06:17:11;101791.47;;;15.14;100.00
42111;BME280;27766;52.174;5.456;2023-05-21T06:19:38;101787.31;;;15.26;100.00
42111;BME280;27766;52.174;5.456;2023-05-21T06:22:05;101793.59;;;15.40;100.00
42111;BME280;27766;52.174;5.456;2023-05-21T06:24:32;101791.97;;;15.50;100.00
42111;BME280;27766;52.174;5.456;2023-05-21T06:26:59;101795.53;;;15.58;100.00
42111;BME280;27766;52.174;5.456;2023-05-21T06:29:28;101793.06;;;15.67;100.00
42111;BME280;27766;52.174;5.456;2023-05-21T06:31:55;101783.59;;;15.77;100.00
42111;BME280;27766;52.174;5.456;2023-05-21T06:34:22;101787.09;;;15.79;100.00
42111;BME280;27766;52.174;5.456;2023-05-21T06:36:50;101790.78;;;15.94;100.00
42111;BME280;27766;52.174;5.456;2023-05-21T06:39:17;101781.19;;;15.91;100.00
42111;BME280;27766;52.174;5.456;2023-05-21T06:41:45;101787.22;;;15.87;100.00
42111;BME280;27766;52.174;5.456;2023-05-21T06:44:12;101776.81;;;15.92;100.00
42111;BME280;27766;52.174;5.456;2023-05-21T06:46:40;101784.81;;;16.04;100.00
42111;BME280;27766;52.174;5.456;2023-05-21T06:49:07;101774.16;;;15.87;100.00
42111;BME280;27766;52.174;5.456;2023-05-21T06:51:34;101784.75;;;16.00;100.00
42111;BME280;27766;52.174;5.456;2023-05-21T06:54:02;101782.09;;;15.93;100.00
42111;BME280;27766;52.174;5.456;2023-05-21T06:56:30;101782.19;;;16.06;100.00
42111;BME280;27766;52.174;5.456;2023-05-21T06:58:57;101784.06;;;16.18;100.00
42111;BME280;27766;52.174;5.456;2023-05-21T07:01:25;101785.88;;;16.25;100.00
42111;BME280;27766;52.174;5.456;2023-05-21T07:03:52;101783.31;;;16.29;100.00
42111;BME280;27766;52.174;5.456;2023-05-21T07:06:20;101785.03;;;16.29;100.00
42111;BME280;27766;52.174;5.456;2023-05-21T07:08:48;101775.47;;;16.31;100.00
42111;BME280;27766;52.174;5.456;2023-05-21T07:11:16;101785.97;;;16.37;100.00
42111;BME280;27766;52.174;5.456;2023-05-21T07:13:43;101780.66;;;16.25;100.00
42111;BME280;27766;52.174;5.456;2023-05-21T07:16:10;101782.34;;;16.23;100.00
42111;BME280;27766;52.174;5.456;2023-05-21T07:18:38;101786.69;;;16.21;100.00
42111;BME280;27766;52.174;5.456;2023-05-21T07:21:05;101785.88;;;16.25;100.00
42111;BME280;27766;52.174;5.456;2023-05-21T07:23:32;101781.59;;;16.33;100.00
42111;BME280;27766;52.174;5.456;2023-05-21T07:25:59;101787.75;;;16.41;100.00
42111;BME280;27766;52.174;5.456;2023-05-21T07:28:27;101785.28;;;16.58;100.00
42111;BME280;27766;52.174;5.456;2023-05-21T07:30:54;101780.13;;;16.66;100.00
42111;BME280;27766;52.174;5.456;2023-05-21T07:33:21;101786.34;;;16.82;100.00
42111;BME280;27766;52.174;5.456;2023-05-21T07:35:48;101777.81;;;17.03;100.00
42111;BME280;27766;52.174;5.456;2023-05-21T07:38:16;101774.34;;;17.12;100.00
42111;BME280;27766;52.174;5.456;2023-05-21T07:40:43;101784.84;;;17.15;100.00
42111;BME280;27766;52.174;5.456;2023-05-21T07:43:11;101781.41;;;17.22;100.00
42111;BME280;27766;52.174;5.456;2023-05-21T07:45:39;101777.06;;;17.28;100.00
42111;BME280;27766;52.174;5.456;2023-05-21T07:48:06;101779.72;;;17.40;100.00
42111;BME280;27766;52.174;5.456;2023-05-21T07:50:34;101785.00;;;17.48;100.00
42111;BME280;27766;52.174;5.456;2023-05-21T07:53:01;101772.81;;;17.50;100.00
42111;BME280;27766;52.174;5.456;2023-05-21T07:55:28;101778.91;;;17.50;100.00
42111;BME280;27766;52.174;5.456;2023-05-21T07:57:55;101780.72;;;17.71;100.00
42111;BME280;27766;52.174;5.456;2023-05-21T08:00:23;101776.41;;;17.92;100.00
42111;BME280;27766;52.174;5.456;2023-05-21T08:02:50;101768.56;;;17.94;100.00
42111;BME280;27766;52.174;5.456;2023-05-21T08:05:18;101771.22;;;17.98;100.00
42111;BME280;27766;52.174;5.456;2023-05-21T08:07:47;101766.00;;;18.00;100.00
42111;BME280;27766;52.174;5.456;2023-05-21T08:10:14;101760.69;;;17.83;100.00
42111;BME280;27766;52.174;5.456;2023-05-21T08:12:45;101766.00;;;18.04;100.00
42111;BME280;27766;52.174;5.456;2023-05-21T08:15:12;101764.28;;;18.16;100.00
42111;BME280;27766;52.174;5.456;2023-05-21T08:17:39;101750.31;;;18.32;100.00
42111;BME280;27766;52.174;5.456;2023-05-21T08:20:08;101745.06;;;18.32;100.00
42111;BME280;27766;52.174;5.456;2023-05-21T08:22:35;101745.94;;;18.22;100.00
42111;BME280;27766;52.174;5.456;2023-05-21T08:25:02;101765.16;;;18.26;100.00
42111;BME280;27766;52.174;5.456;2023-05-21T08:27:29;101761.63;;;17.99;100.00
42111;BME280;27766;52.174;5.456;2023-05-21T08:29:56;101755.47;;;17.92;100.00
42111;BME280;27766;52.174;5.456;2023-05-21T08:32:24;101764.19;;;17.86;100.00
42111;BME280;27766;52.174;5.456;2023-05-21T08:34:51;101759.88;;;17.98;100.00
42111;BME280;27766;52.174;5.456;2023-05-21T08:37:20;101765.13;;;18.10;100.00
42111;BME280;27766;52.174;5.456;2023-05-21T08:39:47;101764.25;;;18.13;100.00
42111;BME280;27766;52.174;5.456;2023-05-21T08:45:07;101762.53;;;18.09;100.00
42111;BME280;27766;52.174;5.456;2023-05-21T08:47:36;101758.09;;;17.89;100.00
42111;BME280;27766;52.174;5.456;2023-05-21T08:50:17;101763.38;;;18.04;100.00
42111;BME280;27766;52.174;5.456;2023-05-21T08:52:45;101766.88;;;18.13;100.00
42111;BME280;27766;52.174;5.456;2023-05-21T08:55:13;101758.19;;;18.31;100.00
42111;BME280;27766;52.174;5.456;2023-05-21T08:57:42;101764.28;;;18.44;100.00
42111;BME280;27766;52.174;5.456;2023-05-21T09:00:11;101760.81;;;18.57;100.00
42111;BME280;27766;52.174;5.456;2023-05-21T09:02:38;101773.00;;;18.78;100.00
42111;BME280;27766;52.174;5.456;2023-05-21T09:05:11;101767.75;;;18.92;100.00
42111;BME280;27766;52.174;5.456;2023-05-21T09:07:47;101774.72;;;19.06;100.00
42111;BME280;27766;52.174;5.456;2023-05-21T09:10:22;101764.25;;;19.03;100.00
42111;BME280;27766;52.174;5.456;2023-05-21T09:12:50;101766.00;;;19.04;100.00
42111;BME280;27766;52.174;5.456;2023-05-21T09:15:17;101761.66;;;18.64;100.00
42111;BME280;27766;52.174;5.456;2023-05-21T09:17:46;101763.41;;;18.79;100.00
42111;BME280;27766;52.174;5.456;2023-05-21T09:20:24;101759.00;;;19.03;100.00
42111;BME280;27766;52.174;5.456;2023-05-21T09:22:53;101756.34;;;19.12;100.00
42111;BME280;27766;52.174;5.456;2023-05-21T09:25:25;101757.19;;;19.26;100.00
42111;BME280;27766;52.174;5.456;2023-05-21T09:27:55;101753.63;;;19.37;100.00
42111;BME280;27766;52.174;5.456;2023-05-21T09:30:23;101753.56;;;19.55;100.00
42111;BME280;27766;52.174;5.456;2023-05-21T09:32:58;101751.75;;;19.62;100.00
42111;BME280;27766;52.174;5.456;2023-05-21T09:35:26;101746.41;;;19.82;100.00
42111;BME280;27766;52.174;5.456;2023-05-21T09:37:54;101745.47;;;19.94;100.00
42111;BME280;27766;52.174;5.456;2023-05-21T09:40:23;101740.22;;;19.94;100.00
42111;BME280;27766;52.174;5.456;2023-05-21T09:42:52;101739.34;;;19.95;100.00
42111;BME280;27766;52.174;5.456;2023-05-21T09:45:23;101747.09;;;20.14;100.00
42111;BME280;27766;52.174;5.456;2023-05-21T09:47:52;101733.13;;;20.08;100.00
42111;BME280;27766;52.174;5.456;2023-05-21T09:50:24;101733.06;;;20.13;100.00
42111;BME280;27766;52.174;5.456;2023-05-21T09:52:54;101739.19;;;20.18;100.00
42111;BME280;27766;52.174;5.456;2023-05-21T09:55:22;101726.03;;;20.20;100.00
42111;BME280;27766;52.174;5.456;2023-05-21T09:57:50;101725.25;;;20.10;100.00
42111;BME280;27766;52.174;5.456;2023-05-21T10:00:20;101722.50;;;20.26;100.00
42111;BME280;27766;52.174;5.456;2023-05-21T10:02:49;101713.56;;;20.40;100.00
42111;BME280;27766;52.174;5.456;2023-05-21T10:05:24;101706.28;;;20.74;100.00
42111;BME280;27766;52.174;5.456;2023-05-21T10:07:52;101707.88;;;20.87;100.00
42111;BME280;27766;52.174;5.456;2023-05-21T10:10:22;101708.78;;;20.87;100.00
42111;BME280;27766;52.174;5.456;2023-05-21T10:13:03;101699.94;;;20.92;100.00
42111;BME280;27766;52.174;5.456;2023-05-21T10:15:43;101700.75;;;20.98;100.00
42111;BME280;27766;52.174;5.456;2023-05-21T10:18:12;101704.84;;;21.23;100.00
42111;BME280;27766;52.174;5.456;2023-05-21T10:20:40;101705.97;;;21.03;100.00
42111;BME280;27766;52.174;5.456;2023-05-21T10:23:08;101693.50;;;21.17;100.00
42111;BME280;27766;52.174;5.456;2023-05-21T10:25:36;101700.28;;;21.35;100.00
42111;BME280;27766;52.174;5.456;2023-05-21T10:28:03;101699.41;;;21.35;100.00
42111;BME280;27766;52.174;5.456;2023-05-21T10:30:33;101697.53;;;21.43;100.00
42111;BME280;27766;52.174;5.456;2023-05-21T10:33:03;101697.41;;;21.53;100.00
42111;BME280;27766;52.174;5.456;2023-05-21T10:35:31;101697.50;;;21.46;100.00
42111;BME280;27766;52.174;5.456;2023-05-21T10:38:02;101695.72;;;21.47;100.00
42111;BME280;27766;52.174;5.456;2023-05-21T10:40:30;101684.09;;;21.65;100.00
42111;BME280;27766;52.174;5.456;2023-05-21T10:43:20;101682.09;;;21.81;100.00
42111;BME280;27766;52.174;5.456;2023-05-21T10:46:14;101678.03;;;21.60;100.00
42111;BME280;27766;52.174;5.456;2023-05-21T10:51:24;101674.69;;;22.05;100.00
42111;BME280;27766;52.174;5.456;2023-05-21T10:57:18;101681.75;;;22.03;99.93
42111;BME280;27766;52.174;5.456;2023-05-21T10:59:48;101685.66;;;21.77;100.00
42111;BME280;27766;52.174;5.456;2023-05-21T11:02:18;101686.16;;;21.40;100.00
42111;BME280;27766;52.174;5.456;2023-05-21T11:04:47;101685.84;;;21.66;100.00
42111;BME280;27766;52.174;5.456;2023-05-21T11:07:22;101676.63;;;21.93;100.00
42111;BME280;27766;52.174;5.456;2023-05-21T11:09:50;101674.34;;;22.25;96.54
42111;BME280;27766;52.174;5.456;2023-05-21T11:12:19;101681.69;;;22.07;97.22
42111;BME280;27766;52.174;5.456;2023-05-21T11:14:58;101689.88;;;21.90;96.73
42111;BME280;27766;52.174;5.456;2023-05-21T11:17:40;101687.63;;;21.64;100.00
42111;BME280;27766;52.174;5.456;2023-05-21T11:20:11;101684.41;;;21.42;100.00
42111;BME280;27766;52.174;5.456;2023-05-21T11:22:44;101673.94;;;21.37;100.00
42111;BME280;27766;52.174;5.456;2023-05-21T11:25:12;101667.13;;;21.85;100.00
42111;BME280;27766;52.174;5.456;2023-05-21T11:27:41;101664.00;;;22.14;99.82
42111;BME280;27766;52.174;5.456;2023-05-21T11:30:17;101659.13;;;22.42;99.69
42111;BME280;27766;52.174;5.456;2023-05-21T11:33:18;101644.69;;;22.62;92.00
42111;BME280;27766;52.174;5.456;2023-05-21T11:38:16;101655.16;;;22.65;91.08
42111;BME280;27766;52.174;5.456;2023-05-21T11:40:53;101640.59;;;22.91;91.44
42111;BME280;27766;52.174;5.456;2023-05-21T11:43:21;101643.59;;;23.18;85.02
42111;BME280;27766;52.174;5.456;2023-05-21T11:45:51;101645.69;;;23.41;82.84
42111;BME280;27766;52.174;5.456;2023-05-21T11:48:20;101639.84;;;23.66;77.38
42111;BME280;27766;52.174;5.456;2023-05-21T11:50:53;101640.84;;;23.98;77.27
42111;BME280;27766;52.174;5.456;2023-05-21T11:53:20;101634.81;;;24.59;70.88
42111;BME280;27766;52.174;5.456;2023-05-21T11:55:48;101630.09;;;24.37;69.08
42111;BME280;27766;52.174;5.456;2023-05-21T11:58:17;101623.75;;;24.44;69.28
42111;BME280;27766;52.174;5.456;2023-05-21T12:00:49;101626.66;;;24.67;68.60
42111;BME280;27766;52.174;5.456;2023-05-21T12:03:17;101632.34;;;24.84;67.22
42111;BME280;27766;52.174;5.456;2023-05-21T12:05:48;101621.09;;;25.06;64.38
42111;BME280;27766;52.174;5.456;2023-05-21T12:08:22;101624.16;;;24.92;62.78
42111;BME280;27766;52.174;5.456;2023-05-21T12:10:59;101621.66;;;24.56;64.91
42111;BME280;27766;52.174;5.456;2023-05-21T12:13:27;101612.97;;;24.82;65.98
42111;BME280;27766;52.174;5.456;2023-05-21T12:15:54;101620.53;;;24.94;65.90
42111;BME280;27766;52.174;5.456;2023-05-21T12:18:22;101620.47;;;24.97;64.91
42111;BME280;27766;52.174;5.456;2023-05-21T12:20:50;101616.09;;;25.25;61.58
42111;BME280;27766;52.174;5.456;2023-05-21T12:23:27;101608.97;;;24.99;64.66
42111;BME280;27766;52.174;5.456;2023-05-21T12:25:54;101613.78;;;25.14;64.32
42111;BME280;27766;52.174;5.456;2023-05-21T12:28:22;101611.03;;;25.47;61.94
42111;BME280;27766;52.174;5.456;2023-05-21T12:30:50;101600.94;;;25.85;58.62
42111;BME280;27766;52.174;5.456;2023-05-21T12:33:19;101596.78;;;25.76;58.98
42111;BME280;27766;52.174;5.456;2023-05-21T12:35:50;101599.34;;;25.53;59.65
42111;BME280;27766;52.174;5.456;2023-05-21T12:38:18;101598.81;;;25.13;60.75
42111;BME280;27766;52.174;5.456;2023-05-21T12:40:46;101600.97;;;25.00;62.50
42111;BME280;27766;52.174;5.456;2023-05-21T12:43:14;101602.84;;;24.96;64.61
42111;BME280;27766;52.174;5.456;2023-05-21T12:45:41;101593.09;;;24.99;66.14
42111;BME280;27766;52.174;5.456;2023-05-21T12:48:10;101604.97;;;25.13;62.80
42111;BME280;27766;52.174;5.456;2023-05-21T12:50:38;101604.50;;;24.71;63.81
42111;BME280;27766;52.174;5.456;2023-05-21T12:53:08;101588.06;;;24.89;63.10
42111;BME280;27766;52.174;5.456;2023-05-21T12:55:37;101598.81;;;25.13;62.73
42111;BME280;27766;52.174;5.456;2023-05-21T12:58:04;101584.31;;;25.25;63.71
42111;BME280;27766;52.174;5.456;2023-05-21T13:00:35;101589.94;;;25.44;62.01
42111;BME280;27766;52.174;5.456;2023-05-21T13:03:03;101590.81;;;25.15;63.24
42111;BME280;27766;52.174;5.456;2023-05-21T13:05:32;101591.91;;;25.09;63.48
42111;BME280;27766;52.174;5.456;2023-05-21T13:08:00;101595.34;;;25.11;64.34